Time;durP1;ratioP1;P1;durP2;ratioP2;P2;SDS_P1;SDS_P2;PMS_P1;PMS_P2;Temp;Humidity;BMP_temperature;BMP_pressure;BME280_temperature;BME280_humidity;BME280_pressure;Samples;Min_cycle;Max_cycle;Signal;HPM_P1;HPM_P2
2022/10/31 00:00:29;;;;;;;6.80;2.63;;;;;;;;;;1031581;28;20519;-78
2022/10/31 00:01:00;;;;;;;4.45;2.78;;;;;;;;;;1031684;28;20049;-78
2022/10/31 00:01:33;;;;;;;5.05;2.20;;;;;;;;;;1031076;28;20372;-77
2022/10/31 00:02:03;;;;;;;6.85;2.03;;;;;;;;;;1027396;28;20113;-77
2022/10/31 00:02:34;;;;;;;6.15;2.33;;;;;;;;;;1027117;28;20446;-77
2022/10/31 00:03:04;;;;;;;10.57;2.67;;;;;;;;;;1027774;28;20117;-78
2022/10/31 00:03:35;;;;;;;5.97;2.53;;;;;;;;;;1030477;28;20085;-77
2022/10/31 00:04:06;;;;;;;4.03;2.05;;;;;;;;;;1031696;28;20057;-78
2022/10/31 00:04:36;;;;;;;6.43;2.92;;;;;;;;;;1031427;28;20054;-77
2022/10/31 00:05:07;;;;;;;6.32;2.58;;;;;;;;;;1031745;28;20025;-77
2022/10/31 00:05:42;;;;;;;6.82;2.30;;;;;;;;;;1031433;28;20029;-77
2022/10/31 00:06:13;;;;;;;7.88;2.70;;;;;;;;;;1031559;28;20033;-78
2022/10/31 00:06:43;;;;;;;6.97;3.00;;;;;;;;;;1031234;28;20513;-77
2022/10/31 00:07:14;;;;;;;5.72;2.30;;;;;;;;;;1031353;28;20451;-78
2022/10/31 00:07:44;;;;;;;6.28;2.13;;;;;;;;;;1031154;28;20033;-78
2022/10/31 00:08:16;;;;;;;5.75;2.67;;;;;;;;;;1031235;28;20026;-78
2022/10/31 00:08:47;;;;;;;4.10;2.13;;;;;;;;;;1031233;28;20487;-78
2022/10/31 00:09:17;;;;;;;7.00;3.70;;;;;;;;;;1031276;28;20026;-78
2022/10/31 00:09:48;;;;;;;8.35;3.42;;;;;;;;;;1030906;28;20026;-77
2022/10/31 00:10:18;;;;;;;4.45;2.83;;;;;;;;;;1031068;28;20022;-77
2022/10/31 00:10:49;;;;;;;5.70;2.50;;;;;;;;;;1031048;28;20037;-77
2022/10/31 00:11:20;;;;;;;6.55;3.03;;;;;;;;;;1026922;28;20113;-77
2022/10/31 00:11:50;;;;;;;6.30;2.55;;;;;;;;;;1031478;28;20137;-77
2022/10/31 00:12:21;;;;;;;8.18;2.05;;;;;;;;;;1035243;28;20030;-77
2022/10/31 00:12:51;;;;;;;4.15;2.70;;;;;;;;;;1031161;28;20015;-77
2022/10/31 00:13:22;;;;;;;3.53;2.33;;;;;;;;;;1031777;28;20532;-78
2022/10/31 00:13:53;;;;;;;6.95;1.77;;;;;;;;;;1031212;28;20442;-78
2022/10/31 00:14:23;;;;;;;5.68;3.15;;;;;;;;;;1031283;28;20383;-77
2022/10/31 00:14:54;;;;;;;4.75;2.13;;;;;;;;;;1031471;28;20026;-77
2022/10/31 00:15:24;;;;;;;6.88;2.22;;;;;;;;;;1031617;28;20025;-78
2022/10/31 00:15:55;;;;;;;6.18;2.63;;;;;;;;;;1031176;28;20087;-78
2022/10/31 00:16:26;;;;;;;5.03;2.45;;;;;;;;;;1031355;28;20031;-78
2022/10/31 00:16:56;;;;;;;6.20;2.75;;;;;;;;;;1030294;28;20022;-78
2022/10/31 00:17:27;;;;;;;8.88;3.00;;;;;;;;;;1026515;28;20089;-78
2022/10/31 00:17:58;;;;;;;6.25;2.65;;;;;;;;;;1031326;28;20064;-78
2022/10/31 00:18:28;;;;;;;6.95;3.33;;;;;;;;;;1031067;28;20097;-77
2022/10/31 00:19:00;;;;;;;5.60;2.35;;;;;;;;;;1031412;28;20506;-77
2022/10/31 00:19:31;;;;;;;6.13;3.20;;;;;;;;;;1035308;28;20018;-77
2022/10/31 00:20:01;;;;;;;6.63;3.53;;;;;;;;;;1031296;28;20022;-78
2022/10/31 00:20:32;;;;;;;8.80;3.15;;;;;;;;;;1031136;28;20113;-77
2022/10/31 00:21:03;;;;;;;4.65;3.00;;;;;;;;;;1031354;28;20105;-77
2022/10/31 00:21:34;;;;;;;7.80;3.80;;;;;;;;;;1031208;28;20037;-77
2022/10/31 00:22:04;;;;;;;11.30;3.55;;;;;;;;;;1033756;28;20069;-77
2022/10/31 00:22:35;;;;;;;6.20;3.60;;;;;;;;;;1028987;28;20022;-77
2022/10/31 00:23:06;;;;;;;7.10;4.10;;;;;;;;;;1029000;28;20520;-77
2022/10/31 00:23:36;;;;;;;10.27;3.50;;;;;;;;;;1029124;28;20030;-78
2022/10/31 00:24:07;;;;;;;9.50;3.60;;;;;;;;;;1028411;28;20019;-77
2022/10/31 00:24:37;;;;;;;7.70;4.15;;;;;;;;;;1031148;28;20038;-77
2022/10/31 00:25:08;;;;;;;6.35;3.53;;;;;;;;;;1028548;28;20058;-77
2022/10/31 00:25:39;;;;;;;10.93;4.00;;;;;;;;;;1029235;28;20026;-77
2022/10/31 00:26:09;;;;;;;7.20;4.05;;;;;;;;;;1032856;28;20026;-77
2022/10/31 00:26:40;;;;;;;6.55;4.30;;;;;;;;;;1027638;28;20027;-77
2022/10/31 00:27:10;;;;;;;8.02;3.92;;;;;;;;;;1031423;28;20101;-77
2022/10/31 00:27:41;;;;;;;7.88;4.40;;;;;;;;;;1031202;28;20402;-77
2022/10/31 00:28:12;;;;;;;13.05;4.07;;;;;;;;;;1032035;28;20437;-77
2022/10/31 00:28:42;;;;;;;7.55;5.25;;;;;;;;;;1035312;28;20112;-77
2022/10/31 00:29:13;;;;;;;6.18;3.63;;;;;;;;;;1035457;28;20068;-78
2022/10/31 00:29:43;;;;;;;7.22;4.60;;;;;;;;;;1031157;28;20124;-77
2022/10/31 00:30:14;;;;;;;7.85;3.13;;;;;;;;;;1030583;28;20034;-77
2022/10/31 00:30:44;;;;;;;4.45;3.20;;;;;;;;;;1031229;28;20422;-77
2022/10/31 00:31:15;;;;;;;10.60;4.07;;;;;;;;;;1031016;28;20558;-77
2022/10/31 00:31:46;;;;;;;6.93;3.28;;;;;;;;;;1031341;28;20015;-77
2022/10/31 00:32:16;;;;;;;9.23;5.47;;;;;;;;;;1031441;28;20034;-77
2022/10/31 00:32:47;;;;;;;17.77;13.43;;;;;;;;;;1034660;28;20014;-77
2022/10/31 00:33:17;;;;;;;15.95;11.02;;;;;;;;;;1031574;28;20394;-77
2022/10/31 00:33:48;;;;;;;17.35;10.27;;;;;;;;;;1031101;28;20483;-77
2022/10/31 00:34:18;;;;;;;25.15;14.45;;;;;;;;;;1031334;28;20069;-77
2022/10/31 00:34:49;;;;;;;13.98;9.60;;;;;;;;;;1031279;28;20018;-77
2022/10/31 00:35:19;;;;;;;7.40;5.30;;;;;;;;;;1031234;28;20033;-77
2022/10/31 00:35:50;;;;;;;7.32;4.82;;;;;;;;;;1031537;28;20046;-77
2022/10/31 00:36:21;;;;;;;6.72;2.42;;;;;;;;;;1035272;28;20026;-77
2022/10/31 00:36:51;;;;;;;7.38;3.85;;;;;;;;;;1035336;28;20468;-77
2022/10/31 00:37:22;;;;;;;5.40;2.50;;;;;;;;;;1031312;28;20025;-77
2022/10/31 00:37:52;;;;;;;6.38;3.83;;;;;;;;;;1027072;28;20034;-77
2022/10/31 00:38:23;;;;;;;10.85;5.95;;;;;;;;;;1027838;28;20058;-77
2022/10/31 00:38:54;;;;;;;9.57;6.13;;;;;;;;;;1028001;28;20031;-77
2022/10/31 00:39:24;;;;;;;11.57;6.55;;;;;;;;;;1031728;28;20030;-77
2022/10/31 00:39:55;;;;;;;9.88;5.43;;;;;;;;;;1032068;28;20062;-78
2022/10/31 00:40:25;;;;;;;10.07;5.75;;;;;;;;;;1031983;28;20121;-77
2022/10/31 00:40:56;;;;;;;7.32;4.22;;;;;;;;;;1031908;28;20023;-77
2022/10/31 00:41:26;;;;;;;8.88;4.85;;;;;;;;;;1032287;28;20010;-77
2022/10/31 00:41:57;;;;;;;8.93;5.15;;;;;;;;;;1034816;28;20463;-77
2022/10/31 00:42:27;;;;;;;5.82;3.47;;;;;;;;;;1029329;28;20019;-78
2022/10/31 00:42:58;;;;;;;3.55;3.20;;;;;;;;;;1030225;28;20371;-78
2022/10/31 00:43:28;;;;;;;9.07;3.03;;;;;;;;;;1027644;28;20521;-78
2022/10/31 00:43:59;;;;;;;6.20;3.05;;;;;;;;;;1029917;28;20191;-78
2022/10/31 00:44:30;;;;;;;6.75;3.25;;;;;;;;;;1031975;28;20405;-78
2022/10/31 00:45:00;;;;;;;4.68;2.33;;;;;;;;;;1031980;28;20022;-77
2022/10/31 00:45:31;;;;;;;7.78;3.63;;;;;;;;;;1031812;28;20097;-77
2022/10/31 00:46:01;;;;;;;7.95;3.70;;;;;;;;;;1031927;28;20081;-78
2022/10/31 00:46:32;;;;;;;10.00;3.63;;;;;;;;;;1031793;28;20019;-78
2022/10/31 00:47:02;;;;;;;6.55;3.25;;;;;;;;;;1031670;28;20026;-78
2022/10/31 00:47:33;;;;;;;8.00;3.05;;;;;;;;;;1031776;28;20030;-77
2022/10/31 00:48:04;;;;;;;9.65;4.03;;;;;;;;;;1031944;28;20022;-77
2022/10/31 00:48:35;;;;;;;10.88;3.80;;;;;;;;;;1030951;28;20073;-78
2022/10/31 00:49:05;;;;;;;10.30;4.43;;;;;;;;;;1030090;28;20112;-78
2022/10/31 00:49:36;;;;;;;8.15;3.47;;;;;;;;;;1031199;28;20018;-77
2022/10/31 00:50:07;;;;;;;7.00;2.67;;;;;;;;;;1028147;28;20061;-77
2022/10/31 00:50:38;;;;;;;6.60;4.13;;;;;;;;;;1031837;28;20024;-77
2022/10/31 00:51:08;;;;;;;6.72;3.38;;;;;;;;;;1031874;28;20467;-78
2022/10/31 00:51:39;;;;;;;8.93;3.42;;;;;;;;;;1028109;28;20019;-78
2022/10/31 00:52:09;;;;;;;5.85;3.30;;;;;;;;;;1029456;28;20022;-77
2022/10/31 00:52:40;;;;;;;6.85;3.97;;;;;;;;;;1030506;28;20025;-77
2022/10/31 00:53:10;;;;;;;10.20;3.65;;;;;;;;;;1028497;28;20026;-77
2022/10/31 00:53:41;;;;;;;5.28;2.80;;;;;;;;;;1033716;28;20053;-78
2022/10/31 00:54:11;;;;;;;6.32;3.22;;;;;;;;;;1032240;28;20018;-77
2022/10/31 00:54:42;;;;;;;6.07;3.25;;;;;;;;;;1031719;28;20025;-77
2022/10/31 00:55:12;;;;;;;8.10;3.63;;;;;;;;;;1032044;28;20089;-78
2022/10/31 00:55:43;;;;;;;7.45;2.88;;;;;;;;;;1030857;28;20469;-78
2022/10/31 00:56:14;;;;;;;5.93;3.28;;;;;;;;;;1031787;28;20030;-78
2022/10/31 00:56:44;;;;;;;6.45;3.30;;;;;;;;;;1035040;28;20112;-78
2022/10/31 00:57:15;;;;;;;5.30;2.65;;;;;;;;;;1035702;28;20057;-78
2022/10/31 00:57:48;;;;;;;8.77;3.70;;;;;;;;;;1034900;28;20041;-78
2022/10/31 00:58:19;;;;;;;6.75;3.78;;;;;;;;;;1036303;28;20043;-78
2022/10/31 00:58:49;;;;;;;7.50;2.90;;;;;;;;;;1031734;28;20583;-77
2022/10/31 00:59:20;;;;;;;5.90;3.03;;;;;;;;;;1022909;28;20043;-77
2022/10/31 00:59:51;;;;;;;6.95;2.97;;;;;;;;;;1031846;28;20050;-77
2022/10/31 01:00:21;;;;;;;6.82;3.38;;;;;;;;;;1031520;28;20092;-77
2022/10/31 01:00:55;;;;;;;8.35;3.55;;;;;;;;;;1035871;28;20164;-78
2022/10/31 01:01:26;;;;;;;6.43;2.72;;;;;;;;;;1031654;28;20018;-78
2022/10/31 01:01:56;;;;;;;6.22;2.75;;;;;;;;;;1031791;28;20030;-78
2022/10/31 01:02:27;;;;;;;6.63;3.22;;;;;;;;;;1031776;28;20072;-77
2022/10/31 01:02:57;;;;;;;5.20;2.80;;;;;;;;;;1031409;28;20033;-77
2022/10/31 01:03:29;;;;;;;5.68;2.95;;;;;;;;;;1035798;28;20025;-77
2022/10/31 01:04:00;;;;;;;10.32;2.78;;;;;;;;;;1035937;28;20026;-78
2022/10/31 01:04:30;;;;;;;5.68;2.90;;;;;;;;;;1031835;28;20026;-78
2022/10/31 01:05:01;;;;;;;6.75;2.40;;;;;;;;;;1031739;28;20509;-77
2022/10/31 01:05:32;;;;;;;8.88;3.53;;;;;;;;;;1031321;28;20023;-78
2022/10/31 01:06:04;;;;;;;5.45;3.00;;;;;;;;;;1031975;28;20121;-78
2022/10/31 01:06:35;;;;;;;6.25;2.78;;;;;;;;;;1035818;28;20382;-78
2022/10/31 01:07:05;;;;;;;7.95;3.33;;;;;;;;;;1031624;28;20058;-78
2022/10/31 01:07:36;;;;;;;5.88;3.35;;;;;;;;;;1027360;28;20113;-77
2022/10/31 01:08:07;;;;;;;5.93;2.88;;;;;;;;;;1027869;28;20394;-78
2022/10/31 01:08:38;;;;;;;7.60;3.53;;;;;;;;;;1027749;28;20093;-77
2022/10/31 01:09:09;;;;;;;6.20;2.90;;;;;;;;;;1031544;28;20029;-77
2022/10/31 01:09:40;;;;;;;6.82;3.25;;;;;;;;;;1035699;28;20021;-77
2022/10/31 01:10:10;;;;;;;6.28;3.55;;;;;;;;;;1036424;28;20053;-78
2022/10/31 01:10:41;;;;;;;7.05;3.30;;;;;;;;;;1035977;28;20029;-77
2022/10/31 01:11:11;;;;;;;5.43;2.55;;;;;;;;;;1035501;28;20021;-77
2022/10/31 01:11:42;;;;;;;7.60;3.97;;;;;;;;;;1032078;28;20025;-77
2022/10/31 01:12:12;;;;;;;9.65;3.88;;;;;;;;;;1035731;28;20545;-78
2022/10/31 01:12:44;;;;;;;6.38;3.20;;;;;;;;;;1032605;28;20089;-78
2022/10/31 01:13:15;;;;;;;7.57;3.28;;;;;;;;;;1034156;28;20028;-78
2022/10/31 01:13:46;;;;;;;10.77;3.10;;;;;;;;;;1033292;28;20088;-78
2022/10/31 01:14:16;;;;;;;7.22;3.25;;;;;;;;;;1033290;28;20026;-78
2022/10/31 01:14:47;;;;;;;6.10;2.47;;;;;;;;;;1035665;28;20057;-78
2022/10/31 01:15:19;;;;;;;8.35;3.33;;;;;;;;;;1031408;28;20022;-77
2022/10/31 01:15:59;;;;;;;7.50;3.03;;;;;;;;;;1031456;28;20030;-77
2022/10/31 01:16:30;;;;;;;6.72;3.78;;;;;;;;;;1032001;28;20062;-77
2022/10/31 01:17:00;;;;;;;5.10;2.50;;;;;;;;;;1030446;28;20088;-77
2022/10/31 01:17:31;;;;;;;5.45;2.83;;;;;;;;;;1029682;28;20019;-78
2022/10/31 01:18:02;;;;;;;6.75;4.15;;;;;;;;;;1030653;28;20121;-78
2022/10/31 01:18:33;;;;;;;5.72;2.63;;;;;;;;;;1030279;28;20430;-78
2022/10/31 01:19:03;;;;;;;6.97;3.85;;;;;;;;;;1035510;28;20026;-78
2022/10/31 01:19:34;;;;;;;5.07;2.63;;;;;;;;;;1031953;28;20026;-78
2022/10/31 01:20:05;;;;;;;5.15;2.72;;;;;;;;;;1031377;28;20030;-78
2022/10/31 01:20:35;;;;;;;6.60;2.95;;;;;;;;;;1031606;28;20022;-78
2022/10/31 01:21:08;;;;;;;4.75;2.53;;;;;;;;;;1031903;28;20113;-78
2022/10/31 01:21:38;;;;;;;4.65;2.60;;;;;;;;;;1032168;28;20036;-78
2022/10/31 01:22:09;;;;;;;4.57;1.73;;;;;;;;;;1032490;28;20407;-78
2022/10/31 01:22:39;;;;;;;4.40;2.33;;;;;;;;;;1036042;28;20466;-80
2022/10/31 01:23:10;;;;;;;4.05;1.90;;;;;;;;;;1034640;28;20028;-77
2022/10/31 01:23:41;;;;;;;9.38;3.55;;;;;;;;;;1034898;28;21176;-77
2022/10/31 01:24:11;;;;;;;7.13;3.17;;;;;;;;;;1031327;28;20057;-77
2022/10/31 01:24:42;;;;;;;5.22;2.85;;;;;;;;;;1031529;28;20033;-77
2022/10/31 01:25:12;;;;;;;5.72;2.55;;;;;;;;;;1031010;28;20026;-78
2022/10/31 01:25:43;;;;;;;5.78;2.58;;;;;;;;;;1030433;28;20029;-78
2022/10/31 01:26:15;;;;;;;5.90;3.10;;;;;;;;;;1031387;28;20037;-78
2022/10/31 01:26:45;;;;;;;5.35;2.72;;;;;;;;;;1030902;28;20022;-78
2022/10/31 01:27:16;;;;;;;5.57;2.80;;;;;;;;;;1030939;28;20442;-79
2022/10/31 01:27:46;;;;;;;7.43;3.08;;;;;;;;;;1031132;28;20018;-79
2022/10/31 01:28:17;;;;;;;13.50;2.58;;;;;;;;;;1030353;28;20117;-79
2022/10/31 01:29:19;;;;;;;6.95;3.00;;;;;;;;;;1038566;23;20037;-78
2022/10/31 01:29:50;;;;;;;8.73;3.42;;;;;;;;;;1032472;28;20167;-78
2022/10/31 01:30:20;;;;;;;6.25;3.72;;;;;;;;;;1029709;28;20509;-79
2022/10/31 01:30:51;;;;;;;5.95;3.20;;;;;;;;;;1028592;28;20368;-78
2022/10/31 01:31:23;;;;;;;7.10;3.90;;;;;;;;;;1028719;28;20287;-77
2022/10/31 01:31:54;;;;;;;11.02;3.53;;;;;;;;;;1028763;28;20411;-81
2022/10/31 01:32:25;;;;;;;11.43;3.90;;;;;;;;;;1027275;28;20023;-81
2022/10/31 01:32:56;;;;;;;8.63;3.97;;;;;;;;;;1026409;28;20030;-78
2022/10/31 01:33:27;;;;;;;5.47;2.83;;;;;;;;;;1027198;28;20035;-79
2022/10/31 01:33:58;;;;;;;15.57;4.72;;;;;;;;;;1028396;28;20050;-78
2022/10/31 01:34:34;;;;;;;9.68;4.13;;;;;;;;;;1028843;28;20026;-78
2022/10/31 01:35:05;;;;;;;8.82;3.42;;;;;;;;;;1028659;28;20022;-78
2022/10/31 01:35:35;;;;;;;7.38;4.43;;;;;;;;;;1023972;28;20161;-78
2022/10/31 01:36:12;;;;;;;7.28;3.50;;;;;;;;;;1025084;28;20032;-77
2022/10/31 01:36:44;;;;;;;6.18;3.38;;;;;;;;;;1026160;28;20109;-79
2022/10/31 01:37:15;;;;;;;7.55;3.78;;;;;;;;;;1026771;28;20121;-78
2022/10/31 01:37:46;;;;;;;7.32;3.30;;;;;;;;;;1028756;28;20037;-78
2022/10/31 01:38:16;;;;;;;7.90;3.75;;;;;;;;;;1025432;28;21200;-77
2022/10/31 01:38:49;;;;;;;9.38;4.30;;;;;;;;;;1025824;28;20090;-78
2022/10/31 01:39:20;;;;;;;8.23;3.53;;;;;;;;;;1024208;28;20028;-78
2022/10/31 01:39:50;;;;;;;8.80;4.28;;;;;;;;;;1023995;28;20123;-79
2022/10/31 01:40:21;;;;;;;12.23;5.15;;;;;;;;;;1075739;23;20026;-80
2022/10/31 01:40:52;;;;;;;8.60;4.47;;;;;;;;;;1038184;28;20037;-78
2022/10/31 01:41:25;;;;;;;9.68;4.53;;;;;;;;;;1066532;22;20083;-80
2022/10/31 01:42:28;;;;;;;12.13;5.63;;;;;;;;;;1108075;23;20533;-79
2022/10/31 01:43:43;;;;;;;10.57;5.88;;;;;;;;;;1035528;28;20054;-80
2022/10/31 01:44:14;;;;;;;10.90;4.93;;;;;;;;;;1039059;28;20026;-80
2022/10/31 01:44:49;;;;;;;11.05;4.85;;;;;;;;;;1038968;28;20524;-80
2022/10/31 01:45:20;;;;;;;9.52;4.22;;;;;;;;;;1039001;28;20485;-82
2022/10/31 01:45:52;;;;;;;11.23;5.38;;;;;;;;;;1037056;28;20035;-80
2022/10/31 01:46:29;;;;;;;11.10;5.38;;;;;;;;;;1098577;22;20013;-81
2022/10/31 01:47:39;;;;;;;6.63;3.72;;;;;;;;;;1039811;23;20042;-80
2022/10/31 01:48:15;;;;;;;9.27;4.65;;;;;;;;;;1070671;22;20531;-80
2022/10/31 01:48:46;;;;;;;12.65;5.80;;;;;;;;;;1034760;28;20030;-80
2022/10/31 01:49:19;;;;;;;15.05;5.30;;;;;;;;;;1034836;28;20048;-81
2022/10/31 01:49:52;;;;;;;13.27;5.03;;;;;;;;;;1038203;28;20048;-80
2022/10/31 01:50:28;;;;;;;13.43;6.53;;;;;;;;;;1038060;28;20029;-81
2022/10/31 01:50:59;;;;;;;11.38;6.30;;;;;;;;;;1036630;28;20205;-81
2022/10/31 01:51:32;;;;;;;9.82;4.40;;;;;;;;;;1030260;28;20072;-80
2022/10/31 01:52:04;;;;;;;9.38;4.38;;;;;;;;;;1031277;28;20109;-81
2022/10/31 01:52:44;;;;;;;12.38;4.93;;;;;;;;;;1030981;28;20487;-82
2022/10/31 01:53:15;;;;;;;9.25;5.38;;;;;;;;;;1030481;28;20069;-81
2022/10/31 01:53:46;;;;;;;10.07;3.92;;;;;;;;;;1030771;28;20446;-80
2022/10/31 01:54:21;;;;;;;10.32;4.43;;;;;;;;;;1031863;28;20038;-80
2022/10/31 01:54:53;;;;;;;9.88;4.43;;;;;;;;;;1031494;28;20077;-80
2022/10/31 01:55:29;;;;;;;12.73;5.07;;;;;;;;;;1032010;28;20045;-80
2022/10/31 01:56:00;;;;;;;15.52;4.75;;;;;;;;;;1030866;28;20052;-80
2022/10/31 01:56:32;;;;;;;10.75;4.20;;;;;;;;;;1030622;28;20022;-80
2022/10/31 01:57:04;;;;;;;12.77;4.20;;;;;;;;;;1030229;28;20030;-80
2022/10/31 01:57:35;;;;;;;14.48;4.13;;;;;;;;;;1032012;28;20094;-79
2022/10/31 01:58:08;;;;;;;15.88;6.35;;;;;;;;;;1030169;28;20038;-80
2022/10/31 01:58:39;;;;;;;13.50;4.25;;;;;;;;;;1033940;28;20036;-80
2022/10/31 01:59:13;;;;;;;5.88;2.55;;;;;;;;;;1085397;22;20331;-82
2022/10/31 01:59:46;;;;;;;11.05;3.15;;;;;;;;;;1043918;28;20055;-78
2022/10/31 02:00:18;;;;;;;12.48;3.88;;;;;;;;;;1042071;28;20103;-78
2022/10/31 02:00:51;;;;;;;7.57;2.65;;;;;;;;;;1038912;28;20025;-79
2022/10/31 02:01:22;;;;;;;6.97;2.63;;;;;;;;;;1041443;28;20434;-80
2022/10/31 02:01:53;;;;;;;9.48;2.75;;;;;;;;;;1043396;28;20107;-81
2022/10/31 02:02:25;;;;;;;14.20;2.72;;;;;;;;;;1040035;28;20020;-79
2022/10/31 02:02:55;;;;;;;6.55;3.10;;;;;;;;;;1036635;28;20090;-79
2022/10/31 02:03:26;;;;;;;11.15;3.58;;;;;;;;;;1032948;28;20445;-80
2022/10/31 02:03:57;;;;;;;5.45;3.10;;;;;;;;;;1028438;28;20086;-81
2022/10/31 02:04:29;;;;;;;6.55;3.00;;;;;;;;;;1030474;28;20018;-80
2022/10/31 02:05:00;;;;;;;4.70;2.55;;;;;;;;;;1042067;23;20034;-82
2022/10/31 02:05:31;;;;;;;7.50;3.28;;;;;;;;;;1037019;28;20064;-79
2022/10/31 02:06:03;;;;;;;12.50;3.22;;;;;;;;;;1037237;28;20072;-78
2022/10/31 02:06:34;;;;;;;12.30;4.32;;;;;;;;;;1037217;28;20727;-78
2022/10/31 02:07:10;;;;;;;7.88;3.67;;;;;;;;;;1036206;28;20081;-79
2022/10/31 02:08:04;;;;;;;7.35;3.38;;;;;;;;;;1037400;28;20076;-79
2022/10/31 02:08:37;;;;;;;8.45;4.35;;;;;;;;;;1026499;28;20023;-79
2022/10/31 02:09:08;;;;;;;9.25;4.13;;;;;;;;;;1035712;28;20570;-79
2022/10/31 02:09:39;;;;;;;7.47;2.92;;;;;;;;;;1030030;28;20027;-80
2022/10/31 02:10:10;;;;;;;12.75;4.57;;;;;;;;;;1032699;28;20023;-79
2022/10/31 02:10:42;;;;;;;8.40;4.43;;;;;;;;;;1035507;28;20033;-79
2022/10/31 02:11:14;;;;;;;10.65;4.75;;;;;;;;;;1034498;28;20026;-82
2022/10/31 02:11:46;;;;;;;12.30;5.13;;;;;;;;;;1034294;28;20030;-80
2022/10/31 02:12:17;;;;;;;9.75;3.88;;;;;;;;;;1032333;28;21082;-80
2022/10/31 02:12:52;;;;;;;11.48;4.85;;;;;;;;;;1034477;28;20030;-80
2022/10/31 02:13:23;;;;;;;10.98;5.43;;;;;;;;;;1073138;22;20178;-83
2022/10/31 02:13:55;;;;;;;11.82;5.45;;;;;;;;;;1064239;23;20344;-80
2022/10/31 02:14:27;;;;;;;10.30;4.88;;;;;;;;;;1036423;28;20039;-80
2022/10/31 02:15:00;;;;;;;12.75;5.72;;;;;;;;;;1037314;28;20054;-79
2022/10/31 02:15:32;;;;;;;11.52;5.95;;;;;;;;;;1037171;28;20024;-79
2022/10/31 02:16:10;;;;;;;14.00;4.82;;;;;;;;;;1035008;28;20366;-80
2022/10/31 02:17:15;;;;;;;12.20;4.80;;;;;;;;;;1036094;28;20604;-79
2022/10/31 02:18:20;;;;;;;11.95;5.80;;;;;;;;;;1027196;28;20150;-82
2022/10/31 02:18:51;;;;;;;14.70;6.60;;;;;;;;;;1028890;28;20389;-78
2022/10/31 02:19:45;;;;;;;15.02;6.93;;;;;;;;;;1028609;28;20960;-79
2022/10/31 02:20:23;;;;;;;13.57;5.03;;;;;;;;;;1028114;28;20034;-79
2022/10/31 02:20:57;;;;;;;16.58;5.22;;;;;;;;;;1027674;28;20026;-81
2022/10/31 02:21:34;;;;;;;10.70;4.97;;;;;;;;;;1028761;28;20496;-82
2022/10/31 02:22:07;;;;;;;11.93;6.03;;;;;;;;;;1028329;28;20026;-81
2022/10/31 02:22:53;;;;;;;14.75;6.60;;;;;;;;;;1040798;22;20030;-79
2022/10/31 02:23:36;;;;;;;14.68;5.57;;;;;;;;;;1033346;28;20026;-80
2022/10/31 02:24:35;;;;;;;;;;;;;;;;;;;;;
2022/10/31 02:25:09;;;;;;;15.07;6.60;;;;;;;;;;1037731;28;20048;-82
2022/10/31 02:25:39;;;;;;;14.43;6.20;;;;;;;;;;1041289;28;20033;-81
2022/10/31 02:26:19;;;;;;;13.57;6.00;;;;;;;;;;1037594;28;20026;-82
2022/10/31 02:26:58;;;;;;;11.02;4.65;;;;;;;;;;1037577;28;20034;-82
2022/10/31 02:27:40;;;;;;;11.93;5.15;;;;;;;;;;1032773;28;20098;-81
2022/10/31 02:28:17;;;;;;;11.05;4.47;;;;;;;;;;1031091;28;20045;-81
2022/10/31 02:28:54;;;;;;;8.50;4.18;;;;;;;;;;1031846;28;20053;-83
2022/10/31 02:31:34;;;;;;;6.70;3.80;;;;;;;;;;1183470;22;20024;-82
2022/10/31 02:32:09;;;;;;;6.05;3.38;;;;;;;;;;1034154;28;20235;-82
2022/10/31 02:32:40;;;;;;;6.07;3.15;;;;;;;;;;1039075;28;20060;-80
2022/10/31 02:33:17;;;;;;;8.57;3.30;;;;;;;;;;1036914;28;20072;-83
2022/10/31 02:33:55;;;;;;;8.05;3.72;;;;;;;;;;1039631;28;20029;-82
2022/10/31 02:34:34;;;;;;;6.18;3.25;;;;;;;;;;1036968;28;20026;-81
2022/10/31 02:35:28;;;;;;;12.35;3.35;;;;;;;;;;1042921;28;20053;-81
2022/10/31 02:36:36;;;;;;;7.70;3.20;;;;;;;;;;1045142;22;20128;-80
2022/10/31 02:37:06;;;;;;;6.20;3.65;;;;;;;;;;1030646;28;20428;-78
2022/10/31 02:37:47;;;;;;;7.35;3.47;;;;;;;;;;1030167;28;20030;-79
2022/10/31 02:38:34;;;;;;;5.88;2.72;;;;;;;;;;1028545;28;20535;-79
2022/10/31 02:39:36;;;;;;;5.22;3.05;;;;;;;;;;1027514;28;20034;-80
2022/10/31 02:40:21;;;;;;;5.55;1.90;;;;;;;;;;1023276;28;20030;-80
2022/10/31 02:41:02;;;;;;;6.55;2.53;;;;;;;;;;1024549;28;21001;-79
2022/10/31 02:41:32;;;;;;;;;;;;;;;;;;1032722;28;20023;-80
2022/10/31 02:42:18;;;;;;;3.70;2.40;;;;;;;;;;1029335;28;19941;-80
2022/10/31 02:42:54;;;;;;;7.05;2.13;;;;;;;;;;1031649;28;20188;-81
2022/10/31 02:43:32;;;;;;;9.90;2.15;;;;;;;;;;1030250;28;20033;-83
2022/10/31 02:44:15;;;;;;;5.88;2.10;;;;;;;;;;1027574;28;20054;-81
2022/10/31 02:44:51;;;;;;;4.78;2.00;;;;;;;;;;1028389;28;20045;-81
2022/10/31 02:45:22;;;;;;;6.10;2.45;;;;;;;;;;1073439;23;20605;-81
2022/10/31 02:46:08;;;;;;;6.13;2.45;;;;;;;;;;1043219;23;20058;-79
2022/10/31 02:47:00;;;;;;;4.82;2.08;;;;;;;;;;1037799;28;20092;-82
2022/10/31 02:47:34;;;;;;;5.22;2.40;;;;;;;;;;1037217;28;20022;-82
2022/10/31 02:49:14;;;;;;;;;;;;;;;;;;1036487;28;20128;-80
2022/10/31 02:49:47;;;;;;;7.13;3.03;;;;;;;;;;1040741;28;20348;-82
2022/10/31 02:50:22;;;;;;;9.85;3.40;;;;;;;;;;1169905;23;20013;-83
2022/10/31 02:51:57;;;;;;;14.93;4.83;;;;;;;;;;1112100;23;20565;-83
2022/10/31 02:52:30;;;;;;;13.93;4.78;;;;;;;;;;1029531;28;20108;-83
2022/10/31 02:53:01;;;;;;;14.82;4.55;;;;;;;;;;1028691;28;20461;-82
2022/10/31 02:54:04;;;;;;;11.85;4.97;;;;;;;;;;1083306;22;20430;-80
2022/10/31 02:54:34;;;;;;;16.23;5.65;;;;;;;;;;1042708;28;20468;-79
2022/10/31 02:55:10;;;;;;;12.93;5.70;;;;;;;;;;1038521;28;20544;-80
2022/10/31 02:55:54;;;;;;;15.32;5.18;;;;;;;;;;1058129;23;20027;-78
2022/10/31 02:56:25;;;;;;;15.80;5.03;;;;;;;;;;1027705;28;20480;-78
2022/10/31 02:57:00;;;;;;;16.13;5.75;;;;;;;;;;1030479;28;20115;-77
2022/10/31 02:57:34;;;;;;;14.57;6.05;;;;;;;;;;1030075;28;20038;-78
2022/10/31 02:58:11;;;;;;;16.05;5.32;;;;;;;;;;1029105;28;20073;-77
2022/10/31 02:58:48;;;;;;;14.50;4.90;;;;;;;;;;1031692;28;20065;-76
2022/10/31 02:59:22;;;;;;;14.77;5.07;;;;;;;;;;1028480;28;20034;-78
2022/10/31 03:00:04;;;;;;;14.00;5.30;;;;;;;;;;1029973;28;20418;-79
2022/10/31 03:00:40;;;;;;;17.85;5.90;;;;;;;;;;1032383;28;20025;-80
2022/10/31 03:01:24;;;;;;;12.70;4.80;;;;;;;;;;1033684;28;20026;-80
2022/10/31 03:02:00;;;;;;;15.35;5.40;;;;;;;;;;1030443;28;20177;-78
2022/10/31 03:02:50;;;;;;;16.25;5.57;;;;;;;;;;1026372;28;20516;-79
2022/10/31 03:03:27;;;;;;;11.75;3.83;;;;;;;;;;1036204;23;20014;-79
2022/10/31 03:04:10;;;;;;;13.02;4.45;;;;;;;;;;1051402;23;20453;-80
2022/10/31 03:05:38;;;;;;;14.55;6.78;;;;;;;;;;1058874;23;20132;-80
2022/10/31 03:11:04;;;;;;;10.45;4.35;;;;;;;;;;1025745;28;20065;-82
2022/10/31 03:11:44;;;;;;;11.10;4.43;;;;;;;;;;1084084;22;21142;-86
2022/10/31 03:15:04;;;;;;;11.88;4.43;;;;;;;;;;1036439;28;20049;-81
2022/10/31 03:16:11;;;;;;;29.13;6.22;;;;;;;;;;1081879;22;20415;-79
2022/10/31 03:17:57;;;;;;;;;;;;;;;;;;1014300;22;20107;-81
2022/10/31 03:19:40;;;;;;;;;;;;;;;;;;1113843;22;20595;-81
2022/10/31 03:20:13;;;;;;;5.97;2.15;;;;;;;;;;1035912;28;20036;-81
2022/10/31 03:20:57;;;;;;;5.07;1.70;;;;;;;;;;1038798;28;20029;-81
2022/10/31 03:21:45;;;;;;;3.92;1.92;;;;;;;;;;1033720;28;20029;-80
2022/10/31 03:22:17;;;;;;;6.05;2.63;;;;;;;;;;1033290;28;20022;-82
2022/10/31 03:22:53;;;;;;;5.80;3.22;;;;;;;;;;1030945;28;20018;-80
2022/10/31 03:23:29;;;;;;;7.70;2.10;;;;;;;;;;1034764;28;20211;-80
2022/10/31 03:24:38;;;;;;;6.80;3.38;;;;;;;;;;1168878;23;20018;-80
2022/10/31 03:25:10;;;;;;;7.45;3.08;;;;;;;;;;1027147;28;20033;-80
2022/10/31 03:26:19;;;;;;;6.97;2.63;;;;;;;;;;1049507;23;20028;-81
2022/10/31 03:26:53;;;;;;;7.90;2.92;;;;;;;;;;1034297;28;20037;-81
2022/10/31 03:27:27;;;;;;;9.82;4.03;;;;;;;;;;1031823;28;20038;-81
2022/10/31 03:28:01;;;;;;;6.00;2.78;;;;;;;;;;1034370;28;20029;-82
2022/10/31 03:28:39;;;;;;;7.47;2.67;;;;;;;;;;1030049;28;21414;-81
2022/10/31 03:29:18;;;;;;;8.95;3.28;;;;;;;;;;1032440;28;20131;-82
2022/10/31 03:29:51;;;;;;;7.88;2.95;;;;;;;;;;1031900;28;20192;-80
2022/10/31 03:30:23;;;;;;;5.40;2.35;;;;;;;;;;1031105;28;20041;-80
2022/10/31 03:30:57;;;;;;;6.78;2.85;;;;;;;;;;1030509;28;20027;-81
2022/10/31 03:31:39;;;;;;;6.30;2.40;;;;;;;;;;1031594;28;20044;-81
2022/10/31 03:32:21;;;;;;;16.92;6.60;;;;;;;;;;1032786;28;20030;-81
2022/10/31 03:33:00;;;;;;;9.48;3.47;;;;;;;;;;1030222;28;20076;-81
2022/10/31 03:33:33;;;;;;;5.22;2.55;;;;;;;;;;1035121;28;20041;-81
2022/10/31 03:34:05;;;;;;;6.80;3.05;;;;;;;;;;1105805;23;20085;-81
2022/10/31 03:35:16;;;;;;;;;;;;;;;;;;1066166;22;20045;-80
2022/10/31 03:35:48;;;;;;;8.00;2.53;;;;;;;;;;1036085;28;19925;-80
2022/10/31 03:36:21;;;;;;;6.18;3.08;;;;;;;;;;1032026;28;20084;-80
2022/10/31 03:36:56;;;;;;;7.38;3.10;;;;;;;;;;1033880;28;20026;-81
2022/10/31 03:37:29;;;;;;;7.10;3.35;;;;;;;;;;1033090;28;20072;-81
2022/10/31 03:38:01;;;;;;;7.70;3.53;;;;;;;;;;1032681;28;20708;-82
2022/10/31 03:38:34;;;;;;;9.07;3.75;;;;;;;;;;1033048;28;20440;-81
2022/10/31 03:39:09;;;;;;;7.25;3.25;;;;;;;;;;1033327;28;20076;-82
2022/10/31 03:39:41;;;;;;;9.23;3.97;;;;;;;;;;1037303;28;20116;-82